Weather at Dyess Air Force Base

Public forecast

Using degrees Fahrenheit for public forecast. Weather courtesy of forecast.io.

Current aviation weather report (METAR) for Dyess Air Force Base

2024/05/28 22:55 (retrieved 45 minutes ago)

KDYS 282255Z 10017G25KT 10SM BKN170 30/16 A2993 RMK AO2A SLP087 T03010161

Aviation forecast (TAF) for Dyess Air Force Base

Forecast is more than 6 hours old.

2024/05/28 16:03 (retrieved 8 hours ago)

TAF TAF KDYS 281600Z 2816/2922 09025G35KT 9999 BKN040 QNH2991INS BECMG 2820/2821 VRB40G50KT 4800 TSRAGR BKN020CB QNH2991INS BECMG 2905/2906 14025G35KT 6000 RA VCTS BKN010CB QNH2994INS BECMG 2909/2910 10012G18KT 9000 -SHRA BKN005 QNH2995INS BECMG 2912/2913 11015G25KT 9000 -SHRA VCTS BKN005CB QNH2999INS BECMG 2913/2914 VRB25G35KT 6000 TSRA BKN005CB QNH2999INS BECMG 2915/2916 11015G25KT 8000 -RA VCTS BKN015CB QNH3000INS BECMG 2916/2917 11012G18KT 9999 NSW BKN020 QNH2988INS TX30/2821Z TN22/2911Z